Trail du Coeur (Télévie Blegny) 25/02/2018 - 13,5 Km
Place Nom Prénom Temps Vitesse Allure Place. Cat. Cat.
1 VRANCKEN JO 37 0:58:28 13,9 4:19 1 S
2 KRICFALUSI GILLES 29 1:01:41 13,1 4:34 2 S
3 LECLERCQ PIERRE 30 1:02:11 13,0 4:36 1 V1
4 BECKERS JACQUES 61 1:03:10 12,8 4:40 3 S
5 PINCKAERS ROBERT 53 1:05:45 12,3 4:52 1 V2
6 BEULEN BRUNO 24 1:06:18 12,2 4:54 4 S
7 LEVAUX JOACHIM 68 1:08:24 11,8 5:04 5 S
8 LIBEREK DAVID 60 1:10:05 11,6 5:11 2 V1
9 PEETERSILLE FREDERIC 72 1:10:31 11,5 5:13 3 V1
10 RAVIGNA PIERRE 25 1:10:56 11,4 5:15 1 V3
11 COLLIGNON FREDERIC 15 1:10:57 11,4 5:15 4 V1
12 RADERMECKER XAVIER 19 1:11:32 11,3 5:17 5 V1
13 BECKERS VINCENT 46 1:11:33 11,3 5:18 2 V2
14 HUSTINGS FABIAN 38 1:11:46 11,3 5:18 6 V1
15 CORIN EDWIN 80 1:12:38 11,2 5:22 6 S
16 FREGONA ALEXANDRE 70 1:12:38 11,2 5:22 7 S
17 FERNEZ PATRICK 8 1:12:47 11,1 5:23 7 V1
18 SARLET JULIE 44 1:12:54 11,1 5:24 1 D
19 LEGROS GHISLAIN 49 1:12:54 11,1 5:24 8 V1
20 HANSSEN ROLAND 56 1:13:10 11,1 5:25 3 V2
21 PENAY THIERRY 4 1:13:18 11,0 5:25 9 V1
22 WILLEM BERNARD 90 1:13:18 11,0 5:25 8 S
23 RAHIER DAVID 67 1:13:38 11,0 5:27 10 V1
24 HEUSSCHEN CHRISTINE 22 1:13:54 11,0 5:28 1 A2
25 SICIM MUSTAFA 43 1:13:57 11,0 5:28 11 V1
26 JOSSE NOEL 21 1:14:00 10,9 5:28 2 V3
27 PRETO ALAIN 9 1:14:07 10,9 5:29 12 V1
28 CAULIE MATHIEU 64 1:14:17 10,9 5:30 9 S
29 MATHOUL CHRISTOPHE 77 1:14:40 10,8 5:31 13 V1
30 DUMONT FREDERIC 47 1:15:09 10,8 5:34 14 V1
31 FAFCHAMPS CLAUDINE 55 1:15:12 10,8 5:34 2 A2
32 LEDRUS QUENTIN 14 1:15:16 10,8 5:34 10 S
33 HODY STEPHANIE 27 1:16:07 10,6 5:38 2 D
34 HEYERES JOEL 11 1:18:12 10,4 5:47 15 V1
35 MAURAGE RAPHAELLE 42 1:18:59 10,3 5:51 1 A1
36 LOGNARD STEPHANIE 41 1:21:30 9,9 6:02 3 D
37 NAMOTTE PHILIPPE 10 1:21:33 9,9 6:02 16 V1
38 MASSART PASCAL 1 1:22:25 9,8 6:06 17 V1
39 CULOT PHILIPPE 52 1:22:28 9,8 6:06 18 V1
40 DOUIN SERGE 51 1:22:28 9,8 6:06 4 V2
41 VRAYENNE VINCENT 65 1:22:33 9,8 6:06 19 V1
42 OUTERS PHILIPPE 48 1:22:44 9,8 6:07 5 V2
43 SONNET PHILIPPE 79 1:23:18 9,7 6:10 11 S
44 DEWIL JEAN 81 1:23:25 9,7 6:10 6 V2
45 DEMONCEAU ISABELLE 31 1:23:41 9,7 6:11 3 A2
46 KRICFALUSI YVAN 28 1:23:41 9,7 6:11 7 V2
47 PEETERS CHANTAL 3 1:23:54 9,7 6:12 1 A3
48 MARTIN LUDOVIC 69 1:24:01 9,6 6:13 20 V1
49 HANON MARTIN 5 1:24:06 9,6 6:13 1 EG
50 PENAY ERIC 6 1:24:06 9,6 6:13 21 V1
51 COEN MARIE-FRANCE 17 1:24:35 9,6 6:15 2 A1
52 PINCKAERS SYLVIA 54 1:25:12 9,5 6:18 4 A2
53 LECLERCQ SABRINA 58 1:27:45 9,2 6:30 3 A1
54 KRICFALUSI MICHEL 59 1:27:45 9,2 6:30 8 V2
55 WILLEMS MAXENCE 20 1:27:52 9,2 6:30 2 EG
56 STAES-POLET SABINE 26 1:28:01 9,2 6:31 5 A2
57 GEUZAINE JO 40 1:28:06 9,2 6:31 9 V2
58 SERVAIS BENOIT 57 1:28:06 9,2 6:31 22 V1
59 CLESEUR CLAUDE 2 1:28:46 9,1 6:34 3 V3
60 DI FILIPPO YVAN 16 1:29:11 9,1 6:36 10 V2
61 PIERRON ROLAND 33 1:29:29 9,1 6:37 1 V4
62 BURLEON QUENTIN 36 1:31:55 8,8 6:48 12 S
63 VINCENT DOMINIQUE 7 1:32:03 8,8 6:49 2 A3
64 VANDEN BULCKE MELANIE 23 1:32:06 8,8 6:49 4 D
65 VERCAMMEN MICHEL 34 1:32:46 8,7 6:52 23 V1
66 LHOEST SARAH 73 1:32:54 8,7 6:52 4 A1
67 DANIS JEAN 78 1:35:08 8,5 7:02 11 V2
68 LHOEST JEAN 74 1:35:38 8,5 7:05 4 V3
69 LEGRAND PATRICIA 18 1:35:39 8,5 7:05 6 A2
70 LEJEUNE KATHY 12 1:36:58 8,4 7:10 5 A1
71 GENON MARIE-PIERRE 13 1:36:58 8,4 7:10 7 A2
72 JADOT PIERRE 45 1:37:38 8,3 7:13 12 V2
73 CHENOT OLIVIER 89 1:37:39 8,3 7:14 24 V1
74 RENNESON GILLES 91 1:39:03 8,2 7:20 13 S
75 MERCENIER JEAN-LUC 35 1:40:18 8,1 7:25 25 V1
76 JENNES PATRICK 32 1:40:18 8,1 7:25 13 V2
77 CHARLIER DELPHINE 39 1:45:49 7,7 7:50 6 A1
78 HOLLANTS MAXIME 62 1:46:12 7,6 7:52 14 S
79 HERKENNE NATHALIE 66 1:54:44 7,1 8:29 7 A1
80 MARECHAL FERNAND 82 1:54:44 7,1 8:29 2 V4
81 MUYTJENS DANIELLE 86 1:56:37 6,9 8:38 8 A2
82 THIELEN SYLVIE 85 1:56:38 6,9 8:38 8 A1
83 GROSJEAN MARTINE 87 1:56:42 6,9 8:38 9 A1
84 WIRTGEN JOHANE 88 1:56:42 6,9 8:38 10 A1
85 LHOEST VIRGINIE 71 2:00:52 6,7 8:57 11 A1
86 VILFROY PHILIPPE 50 2:01:01 6,7 8:57 26 V1
87 TROISFONTAINES CHRISTINE 76 2:13:28 6,1 9:53 12 A1
88 DESSOUROUX ISABELLE 75 2:13:28 6,1 9:53 9 A2